sensor_id;sensor_type;location;lat;lon;timestamp;P1;durP1;ratioP1;P2;durP2;ratioP2
11988;SDS011;6054;50.966;7.094;2022-08-18T01:42:59;13.68;;;12.38;;
11988;SDS011;6054;50.966;7.094;2022-08-18T01:45:27;13.60;;;12.40;;
11988;SDS011;6054;50.966;7.094;2022-08-18T01:47:55;13.40;;;11.98;;
11988;SDS011;6054;50.966;7.094;2022-08-18T01:50:24;12.77;;;11.57;;
11988;SDS011;6054;50.966;7.094;2022-08-18T01:52:52;13.40;;;11.63;;
11988;SDS011;6054;50.966;7.094;2022-08-18T01:55:18;12.75;;;11.45;;
11988;SDS011;6054;50.966;7.094;2022-08-18T01:57:45;12.27;;;11.27;;
11988;SDS011;6054;50.966;7.094;2022-08-18T02:00:15;11.65;;;10.68;;
11988;SDS011;6054;50.966;7.094;2022-08-18T02:02:43;11.38;;;10.43;;
11988;SDS011;6054;50.966;7.094;2022-08-18T02:05:13;12.00;;;11.00;;
11988;SDS011;6054;50.966;7.094;2022-08-18T02:07:45;12.68;;;11.57;;
11988;SDS011;6054;50.966;7.094;2022-08-18T02:10:12;12.45;;;11.25;;
11988;SDS011;6054;50.966;7.094;2022-08-18T02:12:39;12.50;;;11.50;;
11988;SDS011;6054;50.966;7.094;2022-08-18T02:15:07;12.50;;;11.40;;
11988;SDS011;6054;50.966;7.094;2022-08-18T02:17:37;13.40;;;12.20;;
11988;SDS011;6054;50.966;7.094;2022-08-18T02:20:05;12.65;;;11.65;;
11988;SDS011;6054;50.966;7.094;2022-08-18T02:22:33;13.25;;;12.15;;
11988;SDS011;6054;50.966;7.094;2022-08-18T02:25:00;12.95;;;11.77;;
11988;SDS011;6054;50.966;7.094;2022-08-18T02:27:28;12.85;;;11.75;;
11988;SDS011;6054;50.966;7.094;2022-08-18T02:29:55;13.85;;;12.65;;
11988;SDS011;6054;50.966;7.094;2022-08-18T02:32:24;13.02;;;11.88;;
11988;SDS011;6054;50.966;7.094;2022-08-18T02:34:52;13.60;;;12.40;;
11988;SDS011;6054;50.966;7.094;2022-08-18T02:37:19;14.20;;;12.90;;
11988;SDS011;6054;50.966;7.094;2022-08-18T02:39:47;14.98;;;13.55;;
11988;SDS011;6054;50.966;7.094;2022-08-18T02:42:15;13.43;;;12.23;;
11988;SDS011;6054;50.966;7.094;2022-08-18T02:44:42;13.25;;;12.15;;
11988;SDS011;6054;50.966;7.094;2022-08-18T02:47:09;13.57;;;12.45;;
11988;SDS011;6054;50.966;7.094;2022-08-18T02:49:36;12.93;;;11.77;;
11988;SDS011;6054;50.966;7.094;2022-08-18T02:52:04;12.60;;;11.43;;
11988;SDS011;6054;50.966;7.094;2022-08-18T02:54:31;13.27;;;11.88;;
11988;SDS011;6054;50.966;7.094;2022-08-18T02:56:59;13.07;;;11.98;;
11988;SDS011;6054;50.966;7.094;2022-08-18T02:59:32;13.35;;;12.05;;
11988;SDS011;6054;50.966;7.094;2022-08-18T03:01:59;12.60;;;11.50;;
11988;SDS011;6054;50.966;7.094;2022-08-18T03:04:27;13.50;;;12.30;;
11988;SDS011;6054;50.966;7.094;2022-08-18T03:06:54;14.57;;;13.20;;
11988;SDS011;6054;50.966;7.094;2022-08-18T03:09:24;13.85;;;12.55;;
11988;SDS011;6054;50.966;7.094;2022-08-18T03:11:51;14.82;;;13.32;;
11988;SDS011;6054;50.966;7.094;2022-08-18T03:14:18;13.93;;;12.63;;
11988;SDS011;6054;50.966;7.094;2022-08-18T03:16:46;14.93;;;12.93;;
11988;SDS011;6054;50.966;7.094;2022-08-18T03:19:14;15.18;;;13.68;;
11988;SDS011;6054;50.966;7.094;2022-08-18T03:21:41;13.45;;;12.25;;
11988;SDS011;6054;50.966;7.094;2022-08-18T03:24:09;15.05;;;13.73;;
11988;SDS011;6054;50.966;7.094;2022-08-18T03:26:39;14.82;;;13.52;;
11988;SDS011;6054;50.966;7.094;2022-08-18T03:29:09;14.30;;;12.93;;
11988;SDS011;6054;50.966;7.094;2022-08-18T03:31:36;14.95;;;13.55;;
11988;SDS011;6054;50.966;7.094;2022-08-18T03:34:05;13.68;;;12.48;;
11988;SDS011;6054;50.966;7.094;2022-08-18T03:36:32;14.57;;;13.27;;
11988;SDS011;6054;50.966;7.094;2022-08-18T03:39:02;14.32;;;13.13;;
11988;SDS011;6054;50.966;7.094;2022-08-18T03:41:29;14.65;;;13.18;;
11988;SDS011;6054;50.966;7.094;2022-08-18T03:43:58;14.90;;;13.48;;
11988;SDS011;6054;50.966;7.094;2022-08-18T03:46:26;15.27;;;13.88;;
11988;SDS011;6054;50.966;7.094;2022-08-18T03:48:55;16.73;;;13.90;;
11988;SDS011;6054;50.966;7.094;2022-08-18T03:51:23;15.32;;;13.75;;
11988;SDS011;6054;50.966;7.094;2022-08-18T03:53:52;16.15;;;14.65;;
11988;SDS011;6054;50.966;7.094;2022-08-18T03:56:23;15.30;;;13.90;;
11988;SDS011;6054;50.966;7.094;2022-08-18T03:58:53;15.15;;;13.75;;
11988;SDS011;6054;50.966;7.094;2022-08-18T04:01:25;15.85;;;14.45;;
11988;SDS011;6054;50.966;7.094;2022-08-18T04:03:54;14.65;;;13.35;;
11988;SDS011;6054;50.966;7.094;2022-08-18T04:06:24;14.50;;;13.13;;
11988;SDS011;6054;50.966;7.094;2022-08-18T04:08:53;14.25;;;12.98;;
11988;SDS011;6054;50.966;7.094;2022-08-18T04:11:22;15.50;;;14.05;;
11988;SDS011;6054;50.966;7.094;2022-08-18T04:13:49;16.13;;;14.57;;
11988;SDS011;6054;50.966;7.094;2022-08-18T04:16:16;15.60;;;14.07;;
11988;SDS011;6054;50.966;7.094;2022-08-18T04:18:45;17.48;;;15.88;;
11988;SDS011;6054;50.966;7.094;2022-08-18T04:21:11;18.52;;;16.75;;
11988;SDS011;6054;50.966;7.094;2022-08-18T04:23:39;16.65;;;15.13;;
11988;SDS011;6054;50.966;7.094;2022-08-18T04:26:07;17.35;;;15.85;;
11988;SDS011;6054;50.966;7.094;2022-08-18T04:28:36;17.65;;;15.85;;
11988;SDS011;6054;50.966;7.094;2022-08-18T04:31:07;16.48;;;14.98;;
11988;SDS011;6054;50.966;7.094;2022-08-18T04:33:35;16.92;;;15.43;;
11988;SDS011;6054;50.966;7.094;2022-08-18T04:36:08;16.42;;;14.93;;
11988;SDS011;6054;50.966;7.094;2022-08-18T04:38:37;16.92;;;15.43;;
11988;SDS011;6054;50.966;7.094;2022-08-18T04:41:06;15.60;;;14.10;;
11988;SDS011;6054;50.966;7.094;2022-08-18T04:43:33;16.17;;;14.63;;
11988;SDS011;6054;50.966;7.094;2022-08-18T04:46:00;16.58;;;14.65;;
11988;SDS011;6054;50.966;7.094;2022-08-18T04:51:02;15.00;;;13.57;;
11988;SDS011;6054;50.966;7.094;2022-08-18T04:53:33;15.88;;;14.27;;
11988;SDS011;6054;50.966;7.094;2022-08-18T04:56:12;16.25;;;14.63;;
11988;SDS011;6054;50.966;7.094;2022-08-18T04:58:42;16.35;;;14.85;;
11988;SDS011;6054;50.966;7.094;2022-08-18T05:01:09;16.45;;;14.98;;
11988;SDS011;6054;50.966;7.094;2022-08-18T05:03:36;16.40;;;14.80;;
11988;SDS011;6054;50.966;7.094;2022-08-18T05:06:03;16.95;;;15.38;;
11988;SDS011;6054;50.966;7.094;2022-08-18T05:08:32;17.90;;;16.27;;
11988;SDS011;6054;50.966;7.094;2022-08-18T05:11:00;16.73;;;15.13;;
11988;SDS011;6054;50.966;7.094;2022-08-18T05:13:27;16.90;;;15.35;;
11988;SDS011;6054;50.966;7.094;2022-08-18T05:15:54;18.50;;;16.75;;
11988;SDS011;6054;50.966;7.094;2022-08-18T05:18:23;23.42;;;21.00;;
11988;SDS011;6054;50.966;7.094;2022-08-18T05:20:51;23.75;;;21.23;;
11988;SDS011;6054;50.966;7.094;2022-08-18T05:23:18;21.98;;;19.83;;
11988;SDS011;6054;50.966;7.094;2022-08-18T05:25:48;20.85;;;18.83;;
11988;SDS011;6054;50.966;7.094;2022-08-18T05:28:15;22.60;;;20.42;;
11988;SDS011;6054;50.966;7.094;2022-08-18T05:30:43;24.80;;;21.40;;
11988;SDS011;6054;50.966;7.094;2022-08-18T05:33:10;24.70;;;22.17;;
11988;SDS011;6054;50.966;7.094;2022-08-18T05:35:40;27.83;;;24.85;;
11988;SDS011;6054;50.966;7.094;2022-08-18T05:41:08;42.80;;;33.17;;
11988;SDS011;6054;50.966;7.094;2022-08-18T05:43:37;34.72;;;28.50;;
11988;SDS011;6054;50.966;7.094;2022-08-18T05:46:05;40.88;;;32.63;;
11988;SDS011;6054;50.966;7.094;2022-08-18T05:48:33;43.08;;;30.98;;
11988;SDS011;6054;50.966;7.094;2022-08-18T05:51:02;52.05;;;35.17;;
11988;SDS011;6054;50.966;7.094;2022-08-18T05:53:38;48.78;;;35.20;;
11988;SDS011;6054;50.966;7.094;2022-08-18T05:56:26;53.65;;;37.78;;
11988;SDS011;6054;50.966;7.094;2022-08-18T05:59:13;64.45;;;40.50;;
11988;SDS011;6054;50.966;7.094;2022-08-18T06:01:47;61.25;;;41.00;;
11988;SDS011;6054;50.966;7.094;2022-08-18T06:04:22;63.15;;;42.53;;
11988;SDS011;6054;50.966;7.094;2022-08-18T06:06:55;70.97;;;45.55;;
11988;SDS011;6054;50.966;7.094;2022-08-18T06:09:25;67.85;;;43.50;;
11988;SDS011;6054;50.966;7.094;2022-08-18T06:12:00;72.68;;;45.25;;
11988;SDS011;6054;50.966;7.094;2022-08-18T06:14:34;68.13;;;45.53;;
11988;SDS011;6054;50.966;7.094;2022-08-18T06:17:13;74.20;;;44.60;;
11988;SDS011;6054;50.966;7.094;2022-08-18T06:19:54;70.00;;;47.00;;
11988;SDS011;6054;50.966;7.094;2022-08-18T06:22:29;72.53;;;46.20;;
11988;SDS011;6054;50.966;7.094;2022-08-18T06:25:06;69.07;;;45.25;;
11988;SDS011;6054;50.966;7.094;2022-08-18T06:27:42;75.80;;;45.70;;
11988;SDS011;6054;50.966;7.094;2022-08-18T06:30:21;71.93;;;45.33;;
11988;SDS011;6054;50.966;7.094;2022-08-18T06:33:09;76.47;;;46.30;;
11988;SDS011;6054;50.966;7.094;2022-08-18T06:35:43;76.05;;;46.97;;
11988;SDS011;6054;50.966;7.094;2022-08-18T06:41:10;72.82;;;45.72;;
11988;SDS011;6054;50.966;7.094;2022-08-18T06:43:42;72.05;;;44.25;;
11988;SDS011;6054;50.966;7.094;2022-08-18T06:46:22;65.00;;;43.42;;
11988;SDS011;6054;50.966;7.094;2022-08-18T06:48:58;72.10;;;44.90;;
11988;SDS011;6054;50.966;7.094;2022-08-18T06:51:28;76.30;;;44.78;;
11988;SDS011;6054;50.966;7.094;2022-08-18T06:53:56;73.03;;;46.00;;
11988;SDS011;6054;50.966;7.094;2022-08-18T06:56:26;75.50;;;45.25;;
11988;SDS011;6054;50.966;7.094;2022-08-18T06:59:14;69.50;;;44.38;;
11988;SDS011;6054;50.966;7.094;2022-08-18T07:01:46;68.10;;;43.65;;
11988;SDS011;6054;50.966;7.094;2022-08-18T07:04:29;65.10;;;42.80;;
11988;SDS011;6054;50.966;7.094;2022-08-18T07:06:58;64.28;;;43.47;;
11988;SDS011;6054;50.966;7.094;2022-08-18T07:09:36;67.07;;;44.33;;
11988;SDS011;6054;50.966;7.094;2022-08-18T07:12:04;61.33;;;42.63;;
11988;SDS011;6054;50.966;7.094;2022-08-18T07:14:42;59.60;;;42.53;;
11988;SDS011;6054;50.966;7.094;2022-08-18T07:17:11;68.50;;;45.08;;
11988;SDS011;6054;50.966;7.094;2022-08-18T13:20:52;19.48;;;17.30;;
11988;SDS011;6054;50.966;7.094;2022-08-18T13:23:19;19.58;;;17.58;;
11988;SDS011;6054;50.966;7.094;2022-08-18T13:25:46;19.92;;;17.98;;
11988;SDS011;6054;50.966;7.094;2022-08-18T13:28:12;19.58;;;17.73;;
11988;SDS011;6054;50.966;7.094;2022-08-18T13:30:39;19.38;;;17.35;;
11988;SDS011;6054;50.966;7.094;2022-08-18T13:33:06;19.23;;;17.23;;
11988;SDS011;6054;50.966;7.094;2022-08-18T13:35:33;18.95;;;16.55;;
11988;SDS011;6054;50.966;7.094;2022-08-18T13:38:01;19.42;;;17.60;;
11988;SDS011;6054;50.966;7.094;2022-08-18T13:40:29;17.88;;;16.02;;
11988;SDS011;6054;50.966;7.094;2022-08-18T13:42:56;19.98;;;18.10;;
11988;SDS011;6054;50.966;7.094;2022-08-18T13:45:23;21.88;;;19.67;;
11988;SDS011;6054;50.966;7.094;2022-08-18T13:47:50;22.25;;;19.90;;
11988;SDS011;6054;50.966;7.094;2022-08-18T13:50:17;21.60;;;19.40;;
11988;SDS011;6054;50.966;7.094;2022-08-18T13:52:44;22.60;;;20.38;;
11988;SDS011;6054;50.966;7.094;2022-08-18T13:55:14;19.70;;;17.58;;
11988;SDS011;6054;50.966;7.094;2022-08-18T13:57:42;19.27;;;17.40;;
11988;SDS011;6054;50.966;7.094;2022-08-18T14:00:13;19.95;;;18.13;;
11988;SDS011;6054;50.966;7.094;2022-08-18T14:02:43;20.33;;;18.20;;
11988;SDS011;6054;50.966;7.094;2022-08-18T14:05:12;17.45;;;15.65;;
11988;SDS011;6054;50.966;7.094;2022-08-18T14:07:40;17.27;;;15.52;;
11988;SDS011;6054;50.966;7.094;2022-08-18T14:10:07;16.92;;;15.10;;
11988;SDS011;6054;50.966;7.094;2022-08-18T14:12:36;17.00;;;15.40;;
11988;SDS011;6054;50.966;7.094;2022-08-18T14:15:04;18.17;;;15.13;;
11988;SDS011;6054;50.966;7.094;2022-08-18T14:17:33;16.05;;;13.57;;
11988;SDS011;6054;50.966;7.094;2022-08-18T14:20:00;14.25;;;12.85;;
11988;SDS011;6054;50.966;7.094;2022-08-18T14:22:44;15.18;;;13.57;;
11988;SDS011;6054;50.966;7.094;2022-08-18T14:25:29;14.98;;;13.38;;
11988;SDS011;6054;50.966;7.094;2022-08-18T14:28:15;15.05;;;13.40;;
11988;SDS011;6054;50.966;7.094;2022-08-18T14:30:42;14.80;;;13.35;;
11988;SDS011;6054;50.966;7.094;2022-08-18T14:33:10;15.75;;;14.27;;
11988;SDS011;6054;50.966;7.094;2022-08-18T14:35:39;13.95;;;12.55;;
11988;SDS011;6054;50.966;7.094;2022-08-18T14:38:06;15.00;;;12.18;;
11988;SDS011;6054;50.966;7.094;2022-08-18T14:40:33;14.27;;;12.98;;
11988;SDS011;6054;50.966;7.094;2022-08-18T14:43:01;13.70;;;12.35;;
11988;SDS011;6054;50.966;7.094;2022-08-18T14:45:29;13.75;;;12.23;;
11988;SDS011;6054;50.966;7.094;2022-08-18T14:47:56;16.63;;;13.32;;
11988;SDS011;6054;50.966;7.094;2022-08-18T14:50:23;13.85;;;12.40;;
11988;SDS011;6054;50.966;7.094;2022-08-18T14:52:51;11.75;;;10.50;;
11988;SDS011;6054;50.966;7.094;2022-08-18T14:55:18;12.68;;;11.48;;
11988;SDS011;6054;50.966;7.094;2022-08-18T14:57:45;11.88;;;10.77;;
11988;SDS011;6054;50.966;7.094;2022-08-18T15:00:13;11.45;;;10.35;;
11988;SDS011;6054;50.966;7.094;2022-08-18T15:02:43;12.27;;;11.02;;
11988;SDS011;6054;50.966;7.094;2022-08-18T15:05:13;11.52;;;10.38;;
11988;SDS011;6054;50.966;7.094;2022-08-18T15:07:40;16.27;;;10.07;;
11988;SDS011;6054;50.966;7.094;2022-08-18T15:10:07;12.02;;;10.90;;
11988;SDS011;6054;50.966;7.094;2022-08-18T15:12:36;11.18;;;10.10;;
11988;SDS011;6054;50.966;7.094;2022-08-18T15:15:03;11.68;;;10.48;;
11988;SDS011;6054;50.966;7.094;2022-08-18T15:17:32;12.88;;;11.55;;
11988;SDS011;6054;50.966;7.094;2022-08-18T15:20:04;11.40;;;10.40;;
11988;SDS011;6054;50.966;7.094;2022-08-18T15:22:36;12.18;;;10.93;;
11988;SDS011;6054;50.966;7.094;2022-08-18T15:25:21;11.63;;;10.45;;
11988;SDS011;6054;50.966;7.094;2022-08-18T15:28:06;12.93;;;9.50;;
11988;SDS011;6054;50.966;7.094;2022-08-18T15:30:33;11.32;;;10.23;;
11988;SDS011;6054;50.966;7.094;2022-08-18T15:33:02;14.82;;;11.88;;
11988;SDS011;6054;50.966;7.094;2022-08-18T15:35:31;11.85;;;10.85;;
11988;SDS011;6054;50.966;7.094;2022-08-18T15:37:58;12.73;;;11.43;;
11988;SDS011;6054;50.966;7.094;2022-08-18T15:40:26;13.23;;;12.05;;
11988;SDS011;6054;50.966;7.094;2022-08-18T15:42:54;14.55;;;13.25;;
11988;SDS011;6054;50.966;7.094;2022-08-18T15:45:27;13.57;;;11.93;;
11988;SDS011;6054;50.966;7.094;2022-08-18T15:47:57;13.40;;;12.27;;
11988;SDS011;6054;50.966;7.094;2022-08-18T15:50:24;12.02;;;10.82;;
11988;SDS011;6054;50.966;7.094;2022-08-18T15:52:53;14.35;;;10.85;;
11988;SDS011;6054;50.966;7.094;2022-08-18T15:55:22;11.68;;;10.57;;
11988;SDS011;6054;50.966;7.094;2022-08-18T15:57:50;11.07;;;9.95;;
11988;SDS011;6054;50.966;7.094;2022-08-18T16:00:18;13.82;;;10.90;;
11988;SDS011;6054;50.966;7.094;2022-08-18T16:02:49;12.35;;;11.13;;
11988;SDS011;6054;50.966;7.094;2022-08-18T16:05:18;11.88;;;10.75;;
11988;SDS011;6054;50.966;7.094;2022-08-18T16:07:47;11.43;;;10.32;;
11988;SDS011;6054;50.966;7.094;2022-08-18T16:10:17;11.73;;;10.63;;
11988;SDS011;6054;50.966;7.094;2022-08-18T16:12:45;13.15;;;9.98;;
11988;SDS011;6054;50.966;7.094;2022-08-18T16:15:13;11.30;;;10.32;;
11988;SDS011;6054;50.966;7.094;2022-08-18T16:17:41;13.13;;;11.23;;
11988;SDS011;6054;50.966;7.094;2022-08-18T16:20:09;11.40;;;10.43;;
11988;SDS011;6054;50.966;7.094;2022-08-18T16:22:36;12.15;;;11.02;;
11988;SDS011;6054;50.966;7.094;2022-08-18T16:25:04;11.85;;;10.77;;
11988;SDS011;6054;50.966;7.094;2022-08-18T16:27:33;11.85;;;10.65;;
11988;SDS011;6054;50.966;7.094;2022-08-18T16:30:01;11.95;;;10.95;;
11988;SDS011;6054;50.966;7.094;2022-08-18T16:32:29;11.35;;;10.18;;
11988;SDS011;6054;50.966;7.094;2022-08-18T16:34:56;10.30;;;9.50;;
11988;SDS011;6054;50.966;7.094;2022-08-18T16:37:23;11.07;;;10.18;;
11988;SDS011;6054;50.966;7.094;2022-08-18T16:39:50;10.65;;;9.80;;
11988;SDS011;6054;50.966;7.094;2022-08-18T16:42:17;12.07;;;10.35;;
11988;SDS011;6054;50.966;7.094;2022-08-18T16:44:45;14.40;;;10.70;;
11988;SDS011;6054;50.966;7.094;2022-08-18T16:47:12;11.02;;;9.93;;
11988;SDS011;6054;50.966;7.094;2022-08-18T16:49:41;11.80;;;10.60;;
11988;SDS011;6054;50.966;7.094;2022-08-18T16:52:09;11.07;;;10.13;;
11988;SDS011;6054;50.966;7.094;2022-08-18T16:54:37;12.98;;;10.48;;
11988;SDS011;6054;50.966;7.094;2022-08-18T16:57:05;12.60;;;10.23;;
11988;SDS011;6054;50.966;7.094;2022-08-18T16:59:32;12.80;;;10.95;;
11988;SDS011;6054;50.966;7.094;2022-08-18T17:02:17;10.98;;;9.88;;
11988;SDS011;6054;50.966;7.094;2022-08-18T17:05:02;11.77;;;10.73;;
11988;SDS011;6054;50.966;7.094;2022-08-18T17:07:29;10.80;;;9.90;;
11988;SDS011;6054;50.966;7.094;2022-08-18T17:09:57;11.82;;;10.73;;
11988;SDS011;6054;50.966;7.094;2022-08-18T17:12:24;11.70;;;10.50;;
11988;SDS011;6054;50.966;7.094;2022-08-18T17:14:52;13.27;;;10.38;;
11988;SDS011;6054;50.966;7.094;2022-08-18T17:17:21;13.77;;;10.55;;
11988;SDS011;6054;50.966;7.094;2022-08-18T17:19:48;12.15;;;11.00;;
11988;SDS011;6054;50.966;7.094;2022-08-18T17:22:15;12.07;;;11.10;;
11988;SDS011;6054;50.966;7.094;2022-08-18T17:24:43;12.50;;;11.23;;
11988;SDS011;6054;50.966;7.094;2022-08-18T17:27:12;11.35;;;10.15;;
11988;SDS011;6054;50.966;7.094;2022-08-18T17:29:43;11.43;;;10.43;;
11988;SDS011;6054;50.966;7.094;2022-08-18T17:32:13;12.48;;;11.18;;
11988;SDS011;6054;50.966;7.094;2022-08-18T17:34:46;12.68;;;10.13;;
11988;SDS011;6054;50.966;7.094;2022-08-18T17:37:20;11.60;;;10.60;;
11988;SDS011;6054;50.966;7.094;2022-08-18T17:39:49;12.15;;;11.07;;
11988;SDS011;6054;50.966;7.094;2022-08-18T17:42:19;11.38;;;10.35;;
11988;SDS011;6054;50.966;7.094;2022-08-18T17:44:54;11.50;;;10.50;;
11988;SDS011;6054;50.966;7.094;2022-08-18T17:47:25;13.07;;;10.82;;
11988;SDS011;6054;50.966;7.094;2022-08-18T17:49:58;11.80;;;10.57;;
11988;SDS011;6054;50.966;7.094;2022-08-18T17:52:49;12.18;;;11.18;;
11988;SDS011;6054;50.966;7.094;2022-08-18T17:55:23;12.18;;;10.93;;
11988;SDS011;6054;50.966;7.094;2022-08-18T17:57:54;12.18;;;10.95;;
11988;SDS011;6054;50.966;7.094;2022-08-18T18:00:25;11.50;;;10.60;;
11988;SDS011;6054;50.966;7.094;2022-08-18T18:02:53;12.43;;;11.35;;
11988;SDS011;6054;50.966;7.094;2022-08-18T18:05:21;12.27;;;11.13;;
11988;SDS011;6054;50.966;7.094;2022-08-18T18:07:54;11.80;;;10.80;;
11988;SDS011;6054;50.966;7.094;2022-08-18T18:10:23;11.68;;;10.55;;
11988;SDS011;6054;50.966;7.094;2022-08-18T18:13:04;12.40;;;11.05;;
11988;SDS011;6054;50.966;7.094;2022-08-18T18:15:33;12.35;;;11.13;;
11988;SDS011;6054;50.966;7.094;2022-08-18T18:18:16;12.40;;;11.30;;
11988;SDS011;6054;50.966;7.094;2022-08-18T18:20:59;12.38;;;11.15;;
11988;SDS011;6054;50.966;7.094;2022-08-18T18:23:30;11.32;;;10.32;;
11988;SDS011;6054;50.966;7.094;2022-08-18T18:25:59;11.63;;;10.73;;
11988;SDS011;6054;50.966;7.094;2022-08-18T18:28:43;12.85;;;11.65;;
11988;SDS011;6054;50.966;7.094;2022-08-18T18:31:16;11.57;;;10.68;;
11988;SDS011;6054;50.966;7.094;2022-08-18T18:33:47;11.93;;;10.82;;
11988;SDS011;6054;50.966;7.094;2022-08-18T18:36:30;12.05;;;10.93;;
11988;SDS011;6054;50.966;7.094;2022-08-18T18:39:05;11.68;;;10.50;;
11988;SDS011;6054;50.966;7.094;2022-08-18T18:41:34;11.20;;;10.13;;
11988;SDS011;6054;50.966;7.094;2022-08-18T18:44:04;12.32;;;11.02;;
11988;SDS011;6054;50.966;7.094;2022-08-18T18:46:33;11.77;;;10.77;;
11988;SDS011;6054;50.966;7.094;2022-08-18T18:49:12;11.57;;;10.57;;
11988;SDS011;6054;50.966;7.094;2022-08-18T18:51:48;12.30;;;11.20;;
11988;SDS011;6054;50.966;7.094;2022-08-18T18:54:36;11.90;;;10.95;;
11988;SDS011;6054;50.966;7.094;2022-08-18T18:57:11;11.82;;;10.82;;
11988;SDS011;6054;50.966;7.094;2022-08-18T18:59:45;12.82;;;11.68;;
11988;SDS011;6054;50.966;7.094;2022-08-18T19:02:22;11.70;;;10.70;;
11988;SDS011;6054;50.966;7.094;2022-08-18T19:04:54;12.68;;;11.48;;
11988;SDS011;6054;50.966;7.094;2022-08-18T19:07:36;12.32;;;10.80;;
11988;SDS011;6054;50.966;7.094;2022-08-18T19:10:12;11.75;;;10.85;;
11988;SDS011;6054;50.966;7.094;2022-08-18T19:12:45;12.23;;;11.23;;
11988;SDS011;6054;50.966;7.094;2022-08-18T19:15:17;14.57;;;11.93;;
11988;SDS011;6054;50.966;7.094;2022-08-18T19:17:47;13.52;;;12.25;;
